sensor_id;sensor_type;location;lat;lon;timestamp;pressure;altitude;pressure_sealevel;temperature;humidity
54172;BME280;40076;52.354;4.970;2023-08-08T00:00:18;101427.53;;;16.93;100.00
54172;BME280;40076;52.354;4.970;2023-08-08T00:06:04;101425.16;;;16.91;100.00
54172;BME280;40076;52.354;4.970;2023-08-08T00:08:38;101432.88;;;16.89;100.00
54172;BME280;40076;52.354;4.970;2023-08-08T00:11:08;101427.44;;;16.89;100.00
54172;BME280;40076;52.354;4.970;2023-08-08T00:20:43;101411.66;;;16.83;100.00
54172;BME280;40076;52.354;4.970;2023-08-08T00:23:23;101409.38;;;16.85;100.00
54172;BME280;40076;52.354;4.970;2023-08-08T00:25:53;101410.16;;;16.85;100.00
54172;BME280;40076;52.354;4.970;2023-08-08T00:28:45;101409.78;;;16.87;100.00
54172;BME280;40076;52.354;4.970;2023-08-08T00:41:57;101405.50;;;16.86;100.00
54172;BME280;40076;52.354;4.970;2023-08-08T00:45:05;101409.00;;;16.86;100.00
54172;BME280;40076;52.354;4.970;2023-08-08T00:47:39;101413.31;;;16.87;100.00
54172;BME280;40076;52.354;4.970;2023-08-08T00:50:20;101405.13;;;16.87;100.00
54172;BME280;40076;52.354;4.970;2023-08-08T00:52:51;101405.59;;;16.89;100.00
54172;BME280;40076;52.354;4.970;2023-08-08T00:59:03;101394.34;;;16.91;100.00
54172;BME280;40076;52.354;4.970;2023-08-08T01:02:03;101399.00;;;16.90;100.00
54172;BME280;40076;52.354;4.970;2023-08-08T01:05:23;101406.03;;;16.91;100.00
54172;BME280;40076;52.354;4.970;2023-08-08T01:08:35;101399.78;;;16.91;100.00
54172;BME280;40076;52.354;4.970;2023-08-08T01:11:35;101400.94;;;16.90;100.00
54172;BME280;40076;52.354;4.970;2023-08-08T01:14:13;101408.31;;;16.89;100.00
54172;BME280;40076;52.354;4.970;2023-08-08T01:19:48;101395.47;;;16.90;100.00
54172;BME280;40076;52.354;4.970;2023-08-08T01:22:45;101395.00;;;16.88;100.00
54172;BME280;40076;52.354;4.970;2023-08-08T01:25:31;101393.06;;;16.88;100.00
54172;BME280;40076;52.354;4.970;2023-08-08T01:28:25;101393.06;;;16.88;100.00
54172;BME280;40076;52.354;4.970;2023-08-08T01:30:54;101392.28;;;16.88;100.00
54172;BME280;40076;52.354;4.970;2023-08-08T01:33:25;101392.28;;;16.88;100.00
54172;BME280;40076;52.354;4.970;2023-08-08T01:36:20;101389.91;;;16.86;100.00
54172;BME280;40076;52.354;4.970;2023-08-08T01:41:59;101383.09;;;16.80;100.00
54172;BME280;40076;52.354;4.970;2023-08-08T01:45:07;101377.31;;;16.82;100.00
54172;BME280;40076;52.354;4.970;2023-08-08T01:47:35;101375.47;;;16.86;100.00
54172;BME280;40076;52.354;4.970;2023-08-08T01:50:24;101380.81;;;16.82;100.00
54172;BME280;40076;52.354;4.970;2023-08-08T01:53:06;101372.63;;;16.82;100.00
54172;BME280;40076;52.354;4.970;2023-08-08T01:58:40;101363.31;;;16.83;100.00
54172;BME280;40076;52.354;4.970;2023-08-08T02:04:07;101362.97;;;16.85;100.00
54172;BME280;40076;52.354;4.970;2023-08-08T02:06:39;101357.75;;;16.80;100.00
54172;BME280;40076;52.354;4.970;2023-08-08T02:09:14;101364.34;;;16.79;100.00
54172;BME280;40076;52.354;4.970;2023-08-08T02:12:15;101362.06;;;16.81;100.00
54172;BME280;40076;52.354;4.970;2023-08-08T02:15:11;101358.19;;;16.82;100.00
54172;BME280;40076;52.354;4.970;2023-08-08T02:18:00;101350.81;;;16.82;100.00
54172;BME280;40076;52.354;4.970;2023-08-08T02:20:37;101350.00;;;16.82;100.00
54172;BME280;40076;52.354;4.970;2023-08-08T02:23:05;101344.56;;;16.82;100.00
54172;BME280;40076;52.354;4.970;2023-08-08T02:25:54;101357.06;;;16.83;100.00
54172;BME280;40076;52.354;4.970;2023-08-08T02:28:37;101348.88;;;16.83;100.00
54172;BME280;40076;52.354;4.970;2023-08-08T02:31:11;101359.78;;;16.83;100.00
54172;BME280;40076;52.354;4.970;2023-08-08T02:37:12;101350.00;;;16.82;100.00
54172;BME280;40076;52.354;4.970;2023-08-08T02:40:15;101354.22;;;16.79;100.00
54172;BME280;40076;52.354;4.970;2023-08-08T02:43:30;101341.38;;;16.80;100.00
54172;BME280;40076;52.354;4.970;2023-08-08T02:46:00;101339.78;;;16.79;100.00
54172;BME280;40076;52.354;4.970;2023-08-08T02:49:25;101338.56;;;16.76;100.00
54172;BME280;40076;52.354;4.970;2023-08-08T02:51:59;101341.28;;;16.76;100.00
54172;BME280;40076;52.354;4.970;2023-08-08T02:58:33;101329.91;;;16.74;100.00
54172;BME280;40076;52.354;4.970;2023-08-08T03:01:13;101333.78;;;16.73;99.77
54172;BME280;40076;52.354;4.970;2023-08-08T03:03:55;101333.78;;;16.73;99.61
54172;BME280;40076;52.354;4.970;2023-08-08T03:09:43;101340.38;;;16.72;99.42
54172;BME280;40076;52.354;4.970;2023-08-08T03:12:30;101330.59;;;16.71;99.26
54172;BME280;40076;52.354;4.970;2023-08-08T03:18:47;101330.53;;;16.68;98.68
54172;BME280;40076;52.354;4.970;2023-08-08T03:21:26;101319.16;;;16.66;98.64
54172;BME280;40076;52.354;4.970;2023-08-08T03:23:54;101321.09;;;16.65;98.56
54172;BME280;40076;52.354;4.970;2023-08-08T03:26:32;101320.63;;;16.63;98.10
54172;BME280;40076;52.354;4.970;2023-08-08T03:32:02;101311.09;;;16.57;95.86
54172;BME280;40076;52.354;4.970;2023-08-08T03:34:42;101319.72;;;16.59;95.70
54172;BME280;40076;52.354;4.970;2023-08-08T03:37:17;101321.66;;;16.58;95.54
54172;BME280;40076;52.354;4.970;2023-08-08T03:39:47;101309.16;;;16.57;95.33
54172;BME280;40076;52.354;4.970;2023-08-08T03:42:28;101315.75;;;16.56;95.03
54172;BME280;40076;52.354;4.970;2023-08-08T03:44:56;101314.16;;;16.55;94.64
54172;BME280;40076;52.354;4.970;2023-08-08T03:47:31;101302.03;;;16.53;94.56
54172;BME280;40076;52.354;4.970;2023-08-08T03:50:07;101303.16;;;16.52;94.25
54172;BME280;40076;52.354;4.970;2023-08-08T03:53:14;101303.16;;;16.52;94.40
54172;BME280;40076;52.354;4.970;2023-08-08T03:58:59;101300.69;;;16.47;94.17
54172;BME280;40076;52.354;4.970;2023-08-08T04:01:31;101293.63;;;16.46;94.28
54172;BME280;40076;52.354;4.970;2023-08-08T04:04:14;101297.50;;;16.45;94.29
54172;BME280;40076;52.354;4.970;2023-08-08T04:07:02;101297.84;;;16.43;94.44
54172;BME280;40076;52.354;4.970;2023-08-08T04:09:37;101298.19;;;16.42;94.40
54172;BME280;40076;52.354;4.970;2023-08-08T04:15:50;101292.66;;;16.38;94.39
54172;BME280;40076;52.354;4.970;2023-08-08T04:18:53;101294.91;;;16.36;94.65
54172;BME280;40076;52.354;4.970;2023-08-08T04:21:20;101296.84;;;16.36;95.04
54172;BME280;40076;52.354;4.970;2023-08-08T04:24:24;101299.13;;;16.34;95.05
54172;BME280;40076;52.354;4.970;2023-08-08T04:27:19;101297.91;;;16.31;95.08
54172;BME280;40076;52.354;4.970;2023-08-08T04:30:01;101306.88;;;16.32;95.36
54172;BME280;40076;52.354;4.970;2023-08-08T04:38:53;101299.16;;;16.21;95.90
54172;BME280;40076;52.354;4.970;2023-08-08T04:45:22;101302.16;;;16.16;96.04
54172;BME280;40076;52.354;4.970;2023-08-08T04:47:59;101306.81;;;16.16;96.18
54172;BME280;40076;52.354;4.970;2023-08-08T04:51:00;101306.81;;;16.16;96.43
54172;BME280;40076;52.354;4.970;2023-08-08T04:53:39;101311.47;;;16.15;96.42
54172;BME280;40076;52.354;4.970;2023-08-08T04:56:15;101306.34;;;16.14;96.42
54172;BME280;40076;52.354;4.970;2023-08-08T04:59:02;101304.41;;;16.14;96.48
54172;BME280;40076;52.354;4.970;2023-08-08T05:01:38;101300.91;;;16.14;96.30
54172;BME280;40076;52.354;4.970;2023-08-08T05:07:02;101296.13;;;16.11;96.47
54172;BME280;40076;52.354;4.970;2023-08-08T05:09:53;101293.38;;;16.11;96.42
54172;BME280;40076;52.354;4.970;2023-08-08T05:12:54;101295.31;;;16.10;96.51
54172;BME280;40076;52.354;4.970;2023-08-08T05:18:57;101295.31;;;16.10;96.35
54172;BME280;40076;52.354;4.970;2023-08-08T05:21:25;101291.81;;;16.10;96.32
54172;BME280;40076;52.354;4.970;2023-08-08T05:23:59;101292.59;;;16.10;95.97
54172;BME280;40076;52.354;4.970;2023-08-08T05:26:25;101300.78;;;16.10;95.90
54172;BME280;40076;52.354;4.970;2023-08-08T05:28:50;101301.56;;;16.11;96.03
54172;BME280;40076;52.354;4.970;2023-08-08T05:31:16;101302.81;;;16.13;96.05
54172;BME280;40076;52.354;4.970;2023-08-08T05:33:41;101303.28;;;16.15;96.01
54172;BME280;40076;52.354;4.970;2023-08-08T05:36:07;101307.59;;;16.16;96.15
54172;BME280;40076;52.354;4.970;2023-08-08T05:38:40;101311.13;;;16.17;96.02
54172;BME280;40076;52.354;4.970;2023-08-08T05:41:06;101308.81;;;16.19;95.67
54172;BME280;40076;52.354;4.970;2023-08-08T05:43:32;101301.44;;;16.19;95.38
54172;BME280;40076;52.354;4.970;2023-08-08T05:45:58;101303.03;;;16.20;95.23
54172;BME280;40076;52.354;4.970;2023-08-08T05:48:24;101304.63;;;16.21;94.91
54172;BME280;40076;52.354;4.970;2023-08-08T05:50:49;101310.06;;;16.21;95.21
54172;BME280;40076;52.354;4.970;2023-08-08T05:53:14;101307.09;;;16.27;94.94
54172;BME280;40076;52.354;4.970;2023-08-08T05:55:43;101313.34;;;16.27;94.88
54172;BME280;40076;52.354;4.970;2023-08-08T05:58:09;101309.16;;;16.30;95.11
54172;BME280;40076;52.354;4.970;2023-08-08T06:00:35;101311.16;;;16.33;95.20
54172;BME280;40076;52.354;4.970;2023-08-08T06:03:01;101310.03;;;16.34;95.08
54172;BME280;40076;52.354;4.970;2023-08-08T06:05:27;101312.41;;;16.35;94.87
54172;BME280;40076;52.354;4.970;2023-08-08T06:07:53;101307.75;;;16.36;94.32
54172;BME280;40076;52.354;4.970;2023-08-08T06:10:20;101315.25;;;16.39;94.31
54172;BME280;40076;52.354;4.970;2023-08-08T06:12:45;101303.97;;;16.40;93.85
54172;BME280;40076;52.354;4.970;2023-08-08T06:15:12;101304.09;;;16.44;93.75
54172;BME280;40076;52.354;4.970;2023-08-08T06:17:38;101311.94;;;16.45;93.54
54172;BME280;40076;52.354;4.970;2023-08-08T06:20:04;101310.81;;;16.46;93.28
54172;BME280;40076;52.354;4.970;2023-08-08T06:22:29;101316.34;;;16.50;93.38
54172;BME280;40076;52.354;4.970;2023-08-08T06:24:55;101315.66;;;16.53;93.33
54172;BME280;40076;52.354;4.970;2023-08-08T06:27:21;101321.19;;;16.56;92.99
54172;BME280;40076;52.354;4.970;2023-08-08T06:29:49;101318.13;;;16.58;92.80
54172;BME280;40076;52.354;4.970;2023-08-08T06:32:28;101320.84;;;16.58;92.79
54172;BME280;40076;52.354;4.970;2023-08-08T06:35:05;101310.09;;;16.62;92.81
54172;BME280;40076;52.354;4.970;2023-08-08T06:37:33;101321.09;;;16.65;92.79
54172;BME280;40076;52.354;4.970;2023-08-08T06:40:01;101310.16;;;16.65;93.27
54172;BME280;40076;52.354;4.970;2023-08-08T06:42:27;101320.41;;;16.68;93.30
54172;BME280;40076;52.354;4.970;2023-08-08T06:44:58;101318.88;;;16.71;93.22
54172;BME280;40076;52.354;4.970;2023-08-08T06:47:27;101314.69;;;16.73;92.90
54172;BME280;40076;52.354;4.970;2023-08-08T06:50:03;101322.19;;;16.76;92.36
54172;BME280;40076;52.354;4.970;2023-08-08T06:52:38;101319.13;;;16.78;92.31
54172;BME280;40076;52.354;4.970;2023-08-08T06:55:17;101316.47;;;16.81;92.41
54172;BME280;40076;52.354;4.970;2023-08-08T06:58:03;101315.44;;;16.86;92.36
54172;BME280;40076;52.354;4.970;2023-08-08T07:04:09;101314.38;;;16.90;91.83
54172;BME280;40076;52.354;4.970;2023-08-08T07:07:02;101323.34;;;16.91;91.79
54172;BME280;40076;52.354;4.970;2023-08-08T07:09:49;101315.97;;;16.91;91.83
54172;BME280;40076;52.354;4.970;2023-08-08T07:12:23;101323.44;;;16.94;92.35
54172;BME280;40076;52.354;4.970;2023-08-08T07:14:54;101312.63;;;16.98;91.57
54172;BME280;40076;52.354;4.970;2023-08-08T07:17:20;101311.94;;;17.01;91.03
54172;BME280;40076;52.354;4.970;2023-08-08T07:19:48;101307.34;;;17.05;90.87
54172;BME280;40076;52.354;4.970;2023-08-08T07:22:14;101312.13;;;17.08;90.52
54172;BME280;40076;52.354;4.970;2023-08-08T07:24:49;101307.88;;;17.11;91.15
54172;BME280;40076;52.354;4.970;2023-08-08T07:27:20;101298.66;;;17.15;91.10
54172;BME280;40076;52.354;4.970;2023-08-08T07:29:57;101301.91;;;17.21;91.08
54172;BME280;40076;52.354;4.970;2023-08-08T07:32:28;101303.16;;;17.23;91.24
54172;BME280;40076;52.354;4.970;2023-08-08T07:35:08;101298.56;;;17.27;91.49
54172;BME280;40076;52.354;4.970;2023-08-08T07:37:38;101303.31;;;17.30;91.31
54172;BME280;40076;52.354;4.970;2023-08-08T07:40:33;101302.59;;;17.33;91.34
54172;BME280;40076;52.354;4.970;2023-08-08T07:43:04;101302.25;;;17.35;91.34
54172;BME280;40076;52.354;4.970;2023-08-08T07:45:37;101310.44;;;17.35;91.29
54172;BME280;40076;52.354;4.970;2023-08-08T07:48:06;101289.84;;;17.38;91.58
54172;BME280;40076;52.354;4.970;2023-08-08T07:50:32;101288.75;;;17.42;91.94
54172;BME280;40076;52.354;4.970;2023-08-08T07:52:57;101291.94;;;17.44;91.19
54172;BME280;40076;52.354;4.970;2023-08-08T07:55:31;101269.28;;;17.44;90.13
54172;BME280;40076;52.354;4.970;2023-08-08T07:58:06;101293.94;;;17.47;89.87
54172;BME280;40076;52.354;4.970;2023-08-08T08:00:38;101299.84;;;17.49;89.56
54172;BME280;40076;52.354;4.970;2023-08-08T08:06:28;101295.72;;;17.55;89.60
54172;BME280;40076;52.354;4.970;2023-08-08T08:08:59;101291.47;;;17.58;88.94
54172;BME280;40076;52.354;4.970;2023-08-08T08:11:52;101290.00;;;17.60;88.14
54172;BME280;40076;52.354;4.970;2023-08-08T08:14:25;101306.47;;;17.64;88.37
54172;BME280;40076;52.354;4.970;2023-08-08T08:16:59;101294.84;;;17.67;86.87
54172;BME280;40076;52.354;4.970;2023-08-08T08:19:32;101293.34;;;17.69;87.13
54172;BME280;40076;52.354;4.970;2023-08-08T08:21:58;101279.31;;;17.71;86.87
54172;BME280;40076;52.354;4.970;2023-08-08T08:24:30;101290.34;;;17.74;87.50
54172;BME280;40076;52.354;4.970;2023-08-08T08:27:00;101294.38;;;17.81;87.40
54172;BME280;40076;52.354;4.970;2023-08-08T08:29:34;101287.84;;;17.85;87.19
54172;BME280;40076;52.354;4.970;2023-08-08T08:32:03;101292.59;;;17.88;86.93
54172;BME280;40076;52.354;4.970;2023-08-08T08:34:51;101296.63;;;17.94;86.75
54172;BME280;40076;52.354;4.970;2023-08-08T08:37:27;101287.13;;;17.88;84.75
54172;BME280;40076;52.354;4.970;2023-08-08T08:39:56;101298.50;;;17.90;85.20
54172;BME280;40076;52.354;4.970;2023-08-08T08:42:26;101292.94;;;17.87;83.94
54172;BME280;40076;52.354;4.970;2023-08-08T08:45:02;101290.56;;;17.85;83.34
54172;BME280;40076;52.354;4.970;2023-08-08T08:47:59;101296.56;;;17.91;84.37
54172;BME280;40076;52.354;4.970;2023-08-08T08:50:32;101304.47;;;17.96;85.04
54172;BME280;40076;52.354;4.970;2023-08-08T08:53:01;101308.97;;;18.04;84.56
54172;BME280;40076;52.354;4.970;2023-08-08T08:55:37;101301.84;;;17.99;83.63
54172;BME280;40076;52.354;4.970;2023-08-08T08:58:06;101299.16;;;18.03;83.77
54172;BME280;40076;52.354;4.970;2023-08-08T09:01:00;101314.44;;;18.04;83.50
54172;BME280;40076;52.354;4.970;2023-08-08T09:03:36;101312.50;;;18.04;83.37
54172;BME280;40076;52.354;4.970;2023-08-08T09:06:12;101310.19;;;18.06;83.24
54172;BME280;40076;52.354;4.970;2023-08-08T09:08:50;101315.38;;;18.11;83.36
54172;BME280;40076;52.354;4.970;2023-08-08T09:11:22;101315.03;;;18.13;82.95
54172;BME280;40076;52.354;4.970;2023-08-08T09:13:55;101307.69;;;18.17;82.86
54172;BME280;40076;52.354;4.970;2023-08-08T09:16:29;101322.69;;;18.23;83.02
54172;BME280;40076;52.354;4.970;2023-08-08T09:19:15;101311.34;;;18.25;81.99
54172;BME280;40076;52.354;4.970;2023-08-08T09:21:57;101320.78;;;18.27;82.73
54172;BME280;40076;52.354;4.970;2023-08-08T09:24:26;101313.03;;;18.29;83.30
54172;BME280;40076;52.354;4.970;2023-08-08T09:27:00;101299.75;;;18.31;82.91
54172;BME280;40076;52.354;4.970;2023-08-08T09:29:38;101319.09;;;18.38;83.05
54172;BME280;40076;52.354;4.970;2023-08-08T09:32:06;101321.09;;;18.41;82.37
54172;BME280;40076;52.354;4.970;2023-08-08T09:34:46;101318.00;;;18.43;81.78
54172;BME280;40076;52.354;4.970;2023-08-08T09:37:15;101328.94;;;18.43;81.97
54172;BME280;40076;52.354;4.970;2023-08-08T09:40:01;101310.94;;;18.42;81.63
54172;BME280;40076;52.354;4.970;2023-08-08T09:42:41;101312.88;;;18.41;81.20
54172;BME280;40076;52.354;4.970;2023-08-08T09:45:34;101329.78;;;18.47;81.38
54172;BME280;40076;52.354;4.970;2023-08-08T09:48:06;101328.72;;;18.51;81.01
54172;BME280;40076;52.354;4.970;2023-08-08T09:50:41;101331.53;;;18.55;81.09
54172;BME280;40076;52.354;4.970;2023-08-08T09:53:07;101338.25;;;18.58;80.49
54172;BME280;40076;52.354;4.970;2023-08-08T09:55:33;101323.06;;;18.60;80.35
54172;BME280;40076;52.354;4.970;2023-08-08T09:58:00;101333.22;;;18.60;79.61
54172;BME280;40076;52.354;4.970;2023-08-08T10:00:26;101326.97;;;18.59;79.27
54172;BME280;40076;52.354;4.970;2023-08-08T10:02:53;101328.53;;;18.60;79.46
54172;BME280;40076;52.354;4.970;2023-08-08T10:05:19;101335.59;;;18.61;79.55
54172;BME280;40076;52.354;4.970;2023-08-08T10:07:45;101327.00;;;18.63;78.76
54172;BME280;40076;52.354;4.970;2023-08-08T10:10:10;101333.28;;;18.63;78.04
54172;BME280;40076;52.354;4.970;2023-08-08T10:12:40;101325.16;;;18.67;77.88
54172;BME280;40076;52.354;4.970;2023-08-08T10:15:08;101330.75;;;18.74;78.32
54172;BME280;40076;52.354;4.970;2023-08-08T10:17:37;101331.69;;;18.81;78.59
54172;BME280;40076;52.354;4.970;2023-08-08T10:20:04;101327.06;;;18.85;78.28
54172;BME280;40076;52.354;4.970;2023-08-08T10:22:44;101325.19;;;18.89;77.52
54172;BME280;40076;52.354;4.970;2023-08-08T10:27:46;101318.13;;;18.88;76.94
54172;BME280;40076;52.354;4.970;2023-08-08T10:30:11;101327.50;;;18.87;76.89
54172;BME280;40076;52.354;4.970;2023-08-08T10:32:43;101322.81;;;18.88;76.88
54172;BME280;40076;52.354;4.970;2023-08-08T10:35:09;101315.44;;;18.92;77.62
54172;BME280;40076;52.354;4.970;2023-08-08T10:37:37;101314.00;;;18.98;77.76
54172;BME280;40076;52.354;4.970;2023-08-08T10:40:07;101311.31;;;19.02;77.01
54172;BME280;40076;52.354;4.970;2023-08-08T10:42:41;101315.22;;;19.01;76.33
54172;BME280;40076;52.354;4.970;2023-08-08T10:45:12;101323.06;;;19.02;75.89
54172;BME280;40076;52.354;4.970;2023-08-08T10:47:44;101323.88;;;19.03;75.68
54172;BME280;40076;52.354;4.970;2023-08-08T10:50:15;101327.03;;;19.05;76.15
54172;BME280;40076;52.354;4.970;2023-08-08T10:55:31;101316.94;;;19.09;76.31
54172;BME280;40076;52.354;4.970;2023-08-08T10:58:12;101327.53;;;19.10;76.39
54172;BME280;40076;52.354;4.970;2023-08-08T11:00:39;101327.97;;;19.12;76.67
54172;BME280;40076;52.354;4.970;2023-08-08T11:03:07;101330.34;;;19.14;76.70
54172;BME280;40076;52.354;4.970;2023-08-08T11:05:36;101328.81;;;19.16;77.21
54172;BME280;40076;52.354;4.970;2023-08-08T11:08:03;101331.63;;;19.20;77.48
54172;BME280;40076;52.354;4.970;2023-08-08T11:10:34;101333.13;;;19.17;77.08
54172;BME280;40076;52.354;4.970;2023-08-08T11:13:01;101328.81;;;19.16;76.76
54172;BME280;40076;52.354;4.970;2023-08-08T11:15:32;101326.84;;;19.17;77.03
54172;BME280;40076;52.354;4.970;2023-08-08T11:17:59;101348.41;;;19.18;77.66
54172;BME280;40076;52.354;4.970;2023-08-08T11:20:29;101340.56;;;19.17;77.42
54172;BME280;40076;52.354;4.970;2023-08-08T11:22:57;101337.09;;;19.20;77.42
54172;BME280;40076;52.354;4.970;2023-08-08T11:25:26;101340.66;;;19.24;77.61
54172;BME280;40076;52.354;4.970;2023-08-08T11:27:53;101336.44;;;19.26;77.21
54172;BME280;40076;52.354;4.970;2023-08-08T11:30:20;101325.03;;;19.24;76.44
54172;BME280;40076;52.354;4.970;2023-08-08T11:32:47;101330.94;;;19.26;75.93
54172;BME280;40076;52.354;4.970;2023-08-08T11:35:17;101337.69;;;19.33;76.60
54172;BME280;40076;52.354;4.970;2023-08-08T11:37:45;101324.88;;;19.37;76.40
54172;BME280;40076;52.354;4.970;2023-08-08T11:40:12;101335.06;;;19.40;75.87
54172;BME280;40076;52.354;4.970;2023-08-08T11:42:39;101331.63;;;19.43;75.66
54172;BME280;40076;52.354;4.970;2023-08-08T11:45:07;101332.47;;;19.47;75.60
54172;BME280;40076;52.354;4.970;2023-08-08T11:47:38;101329.06;;;19.53;74.63
54172;BME280;40076;52.354;4.970;2023-08-08T11:50:06;101331.50;;;19.58;74.59
54172;BME280;40076;52.354;4.970;2023-08-08T11:52:45;101329.66;;;19.66;74.19
54172;BME280;40076;52.354;4.970;2023-08-08T11:55:12;101325.78;;;19.67;73.34
54172;BME280;40076;52.354;4.970;2023-08-08T11:57:41;101330.09;;;19.68;72.99
54172;BME280;40076;52.354;4.970;2023-08-08T12:00:08;101327.34;;;19.68;72.98
54172;BME280;40076;52.354;4.970;2023-08-08T12:02:34;101344.22;;;19.70;73.26
54172;BME280;40076;52.354;4.970;2023-08-08T12:05:07;101329.72;;;19.70;72.72
54172;BME280;40076;52.354;4.970;2023-08-08T12:07:35;101332.50;;;19.73;72.99
54172;BME280;40076;52.354;4.970;2023-08-08T12:10:03;101333.94;;;19.63;73.28
54172;BME280;40076;52.354;4.970;2023-08-08T12:12:29;101331.25;;;19.67;73.07
54172;BME280;40076;52.354;4.970;2023-08-08T12:14:57;101329.66;;;19.66;73.07
54172;BME280;40076;52.354;4.970;2023-08-08T12:17:23;101330.88;;;19.69;73.09
54172;BME280;40076;52.354;4.970;2023-08-08T12:19:48;101324.28;;;19.73;73.30
54172;BME280;40076;52.354;4.970;2023-08-08T12:22:17;101321.56;;;19.73;72.20
54172;BME280;40076;52.354;4.970;2023-08-08T12:24:43;101328.63;;;19.74;72.06
54172;BME280;40076;52.354;4.970;2023-08-08T12:27:08;101323.13;;;19.74;72.55
54172;BME280;40076;52.354;4.970;2023-08-08T12:29:34;101327.47;;;19.75;73.15
54172;BME280;40076;52.354;4.970;2023-08-08T12:31:59;101325.09;;;19.74;72.83
54172;BME280;40076;52.354;4.970;2023-08-08T12:34:27;101331.00;;;19.76;72.83
54172;BME280;40076;52.354;4.970;2023-08-08T12:36:53;101336.06;;;19.74;72.22
54172;BME280;40076;52.354;4.970;2023-08-08T12:39:21;101328.63;;;19.74;72.44
54172;BME280;40076;52.354;4.970;2023-08-08T12:41:47;101336.88;;;19.78;72.87
54172;BME280;40076;52.354;4.970;2023-08-08T12:44:15;101339.59;;;19.74;72.92
54172;BME280;40076;52.354;4.970;2023-08-08T12:46:41;101349.34;;;19.72;72.74
54172;BME280;40076;52.354;4.970;2023-08-08T12:49:09;101343.81;;;19.68;73.27
54172;BME280;40076;52.354;4.970;2023-08-08T12:51:34;101333.56;;;19.65;73.39
54172;BME280;40076;52.354;4.970;2023-08-08T12:54:00;101337.47;;;19.64;73.29
54172;BME280;40076;52.354;4.970;2023-08-08T12:56:26;101333.50;;;19.61;73.62
54172;BME280;40076;52.354;4.970;2023-08-08T12:58:51;101335.41;;;19.57;73.54
54172;BME280;40076;52.354;4.970;2023-08-08T13:01:17;101320.91;;;19.57;73.88
54172;BME280;40076;52.354;4.970;2023-08-08T13:03:43;101330.41;;;19.63;74.32
54172;BME280;40076;52.354;4.970;2023-08-08T13:06:08;101328.50;;;19.67;74.32
54172;BME280;40076;52.354;4.970;2023-08-08T13:08:36;101326.25;;;19.73;74.17
54172;BME280;40076;52.354;4.970;2023-08-08T13:11:02;101336.94;;;19.81;74.21
54172;BME280;40076;52.354;4.970;2023-08-08T13:13:27;101333.44;;;19.84;73.64
54172;BME280;40076;52.354;4.970;2023-08-08T13:15:55;101337.06;;;19.88;72.78
54172;BME280;40076;52.354;4.970;2023-08-08T13:18:21;101338.63;;;19.89;73.25
54172;BME280;40076;52.354;4.970;2023-08-08T13:20:50;101341.41;;;19.93;73.26
54172;BME280;40076;52.354;4.970;2023-08-08T13:23:22;101335.94;;;19.93;72.85
54172;BME280;40076;52.354;4.970;2023-08-08T13:25:53;101341.03;;;19.91;72.57
54172;BME280;40076;52.354;4.970;2023-08-08T13:28:28;101352.34;;;19.89;72.48
54172;BME280;40076;52.354;4.970;2023-08-08T13:30:56;101351.09;;;19.83;72.36
54172;BME280;40076;52.354;4.970;2023-08-08T13:33:22;101351.03;;;19.80;72.55
54172;BME280;40076;52.354;4.970;2023-08-08T13:35:50;101352.53;;;19.77;71.96
54172;BME280;40076;52.354;4.970;2023-08-08T13:38:18;101354.88;;;19.75;71.81
54172;BME280;40076;52.354;4.970;2023-08-08T13:40:46;101377.53;;;19.72;72.01
54172;BME280;40076;52.354;4.970;2023-08-08T13:43:14;101361.03;;;19.69;71.88
54172;BME280;40076;52.354;4.970;2023-08-08T13:45:39;101363.38;;;19.67;72.26
54172;BME280;40076;52.354;4.970;2023-08-08T13:48:05;101357.44;;;19.64;72.17
54172;BME280;40076;52.354;4.970;2023-08-08T13:50:31;101371.94;;;19.65;72.07
54172;BME280;40076;52.354;4.970;2023-08-08T13:52:59;101369.94;;;19.62;72.36
54172;BME280;40076;52.354;4.970;2023-08-08T13:55:41;101363.28;;;19.63;72.57
54172;BME280;40076;52.354;4.970;2023-08-08T13:58:08;101376.28;;;19.66;72.43
54172;BME280;40076;52.354;4.970;2023-08-08T14:00:36;101361.41;;;19.67;72.25
54172;BME280;40076;52.354;4.970;2023-08-08T14:03:07;101372.38;;;19.67;71.65
54172;BME280;40076;52.354;4.970;2023-08-08T14:05:34;101373.97;;;19.68;72.05
54172;BME280;40076;52.354;4.970;2023-08-08T14:07:59;101365.75;;;19.68;72.04
54172;BME280;40076;52.354;4.970;2023-08-08T14:10:37;101372.78;;;19.69;71.95
54172;BME280;40076;52.354;4.970;2023-08-08T14:13:10;101375.16;;;19.71;71.80
54172;BME280;40076;52.354;4.970;2023-08-08T14:15:38;101360.25;;;19.68;71.30
54172;BME280;40076;52.354;4.970;2023-08-08T14:18:09;101354.78;;;19.68;71.79
54172;BME280;40076;52.354;4.970;2023-08-08T14:20:35;101357.91;;;19.70;71.90
54172;BME280;40076;52.354;4.970;2023-08-08T14:23:06;101346.94;;;19.70;72.03
54172;BME280;40076;52.354;4.970;2023-08-08T14:25:34;101341.06;;;19.68;71.95
54172;BME280;40076;52.354;4.970;2023-08-08T14:27:59;101349.34;;;19.72;71.84
54172;BME280;40076;52.354;4.970;2023-08-08T14:30:29;101340.78;;;19.77;70.59
54172;BME280;40076;52.354;4.970;2023-08-08T14:32:55;101340.41;;;19.78;69.45
54172;BME280;40076;52.354;4.970;2023-08-08T14:35:22;101333.78;;;19.79;69.58
54172;BME280;40076;52.354;4.970;2023-08-08T14:37:47;101337.31;;;19.80;70.05
54172;BME280;40076;52.354;4.970;2023-08-08T14:40:13;101340.13;;;19.83;70.53
54172;BME280;40076;52.354;4.970;2023-08-08T14:42:38;101335.03;;;19.85;70.61
54172;BME280;40076;52.354;4.970;2023-08-08T14:45:04;101339.00;;;19.88;71.63
54172;BME280;40076;52.354;4.970;2023-08-08T14:47:30;101341.47;;;19.96;71.88
54172;BME280;40076;52.354;4.970;2023-08-08T14:49:56;101354.50;;;20.03;72.45